Time;durP1;ratioP1;P1;durP2;ratioP2;P2;SDS_P1;SDS_P2;PMS_P1;PMS_P2;Temp;Humidity;BMP_temperature;BMP_pressure;BME280_temperature;BME280_humidity;BME280_pressure;Samples;Min_cycle;Max_cycle;Signal;HPM_P1;HPM_P2
2022/05/07 00:00:52;;;;;;;;;;;;;;;;;;5074208;28;20260;-52
2022/05/07 00:03:18;;;;;;;;;;;;;;;;;;5073801;28;19994;-57
2022/05/07 00:05:45;;;;;;;;;;;;;;;;;;5073520;28;19920;-51
2022/05/07 00:08:11;;;;;;;;;;;;;;;;;;5073462;28;20003;-50
2022/05/07 00:10:38;;;;;;;;;;;;;;;;;;5073687;28;19909;-56
2022/05/07 00:13:04;;;;;;;;;;;;;;;;;;5074141;28;19915;-49
2022/05/07 00:15:31;;;;;;;;;;;;;;;;;;5074446;28;20344;-50
2022/05/07 00:18:10;;;;;;;;;;;;;;;;;;5073349;28;20018;-47
2022/05/07 00:20:38;;;;;;;;;;;;;;;;;;5073714;28;19962;-49
2022/05/07 00:23:07;;;;;;;;;;;;;;;;;;5073866;28;19913;-50
2022/05/07 00:25:34;;;;;;;;;;;;;;;;;;5074040;28;19996;-47
2022/05/07 00:28:00;;;;;;;;;;;;;;;;;;5073720;28;19919;-49
2022/05/07 00:30:27;;;;;;;;;;;;;;;;;;5073607;28;19909;-56
2022/05/07 00:32:53;;;;;;;;;;;;;;;;;;5073436;28;19909;-56
2022/05/07 00:35:20;;;;;;;;;;;;;;;;;;5073524;28;19917;-56
2022/05/07 00:37:46;;;;;;;;;;;;;;;;;;5073897;28;19909;-57
2022/05/07 00:40:13;;;;;;;;;;;;;;;;;;5073821;28;19909;-55
2022/05/07 00:42:39;;;;;;;;;;;;;;;;;;5073023;28;19940;-60
2022/05/07 00:45:06;;;;;;;;;;;;;;;;;;5071717;28;19908;-53
2022/05/07 00:47:35;;;;;;;;;;;;;;;;;;5053387;28;19909;-56
2022/05/07 00:52:46;;;;;;;;;;;;;;;;;;5053106;28;20275;-58
2022/05/07 00:55:13;;;;;;;;;;;;;;;;;;5052641;28;19975;-59
2022/05/07 00:57:39;;;;;;;;;;;;;;;;;;5053136;28;19939;-59
2022/05/07 01:00:05;;;;;;;;;;;;;;;;;;5052445;28;19982;-54
2022/05/07 01:02:32;;;;;;;;;;;;;;;;;;5052761;28;19915;-57
2022/05/07 01:04:58;;;;;;;;;;;;;;;;;;5053264;28;19905;-52
2022/05/07 01:07:25;;;;;;;;;;;;;;;;;;5052819;28;19974;-59
2022/05/07 01:09:51;;;;;;;;;;;;;;;;;;5052450;28;19912;-57
2022/05/07 01:12:18;;;;;;;;;;;;;;;;;;5053144;28;20348;-53
2022/05/07 01:14:44;;;;;;;;;;;;;;;;;;5052291;28;19939;-58
2022/05/07 01:17:11;;;;;;;;;;;;;;;;;;5052713;28;20043;-57
2022/05/07 01:19:37;;;;;;;;;;;;;;;;;;5052490;28;19912;-57
2022/05/07 01:22:03;;;;;;;;;;;;;;;;;;5071401;28;19908;-56
2022/05/07 01:24:39;;;;;;;;;;;;;;;;;;5072642;28;19909;-54
2022/05/07 01:27:05;;;;;;;;;;;;;;;;;;5072566;28;19908;-51
2022/05/07 01:29:32;;;;;;;;;;;;;;;;;;5072345;28;19931;-57
2022/05/07 01:31:58;;;;;;;;;;;;;;;;;;5072116;28;20428;-51
2022/05/07 01:34:25;;;;;;;;;;;;;;;;;;5064737;28;19947;-53
2022/05/07 01:36:51;;;;;;;;;;;;;;;;;;5052026;28;19974;-52
2022/05/07 01:39:18;;;;;;;;;;;;;;;;;;5052082;28;19991;-57
2022/05/07 01:41:44;;;;;;;;;;;;;;;;;;5052379;28;19908;-57
2022/05/07 01:44:11;;;;;;;;;;;;;;;;;;5051304;28;19920;-55
2022/05/07 01:49:22;;;;;;;;;;;;;;;;;;5052510;28;19932;-59
2022/05/07 01:51:48;;;;;;;;;;;;;;;;;;5066342;28;19912;-55
2022/05/07 01:54:15;;;;;;;;;;;;;;;;;;5072274;28;19913;-59
2022/05/07 01:56:41;;;;;;;;;;;;;;;;;;5072577;28;20003;-51
2022/05/07 01:59:08;;;;;;;;;;;;;;;;;;5072357;28;20313;-54
2022/05/07 02:01:35;;;;;;;;;;;;;;;;;;5072028;28;20205;-52
2022/05/07 02:04:04;;;;;;;;;;;;;;;;;;5071273;28;19959;-49
2022/05/07 02:06:30;;;;;;;;;;;;;;;;;;5071415;28;19921;-55
2022/05/07 02:08:57;;;;;;;;;;;;;;;;;;5072038;28;19909;-51
2022/05/07 02:11:23;;;;;;;;;;;;;;;;;;5072161;28;19935;-47
2022/05/07 02:13:50;;;;;;;;;;;;;;;;;;5074585;28;19909;-53
2022/05/07 02:16:16;;;;;;;;;;;;;;;;;;5076157;28;19916;-56
2022/05/07 02:18:43;;;;;;;;;;;;;;;;;;5075850;28;19913;-56
2022/05/07 02:21:09;;;;;;;;;;;;;;;;;;5075847;28;19914;-55
2022/05/07 02:23:36;;;;;;;;;;;;;;;;;;5076191;28;19908;-56
2022/05/07 02:26:02;;;;;;;;;;;;;;;;;;5075977;28;19908;-57
2022/05/07 02:28:28;;;;;;;;;;;;;;;;;;5075675;28;19951;-57
2022/05/07 02:30:55;;;;;;;;;;;;;;;;;;5076000;28;19916;-58
2022/05/07 02:33:21;;;;;;;;;;;;;;;;;;5075956;28;19908;-58
2022/05/07 02:35:48;;;;;;;;;;;;;;;;;;5075543;28;19927;-55
2022/05/07 02:38:15;;;;;;;;;;;;;;;;;;5075654;28;19961;-52
2022/05/07 02:43:26;;;;;;;;;;;;;;;;;;5075183;28;19916;-54
2022/05/07 02:45:52;;;;;;;;;;;;;;;;;;5075492;28;19909;-55
2022/05/07 02:48:19;;;;;;;;;;;;;;;;;;5075364;28;20378;-59
2022/05/07 02:50:45;;;;;;;;;;;;;;;;;;5074497;28;19932;-52
2022/05/07 02:53:12;;;;;;;;;;;;;;;;;;5065244;28;19966;-56
2022/05/07 02:55:38;;;;;;;;;;;;;;;;;;5056207;28;19917;-55
2022/05/07 02:58:06;;;;;;;;;;;;;;;;;;5055835;28;19962;-49
2022/05/07 03:00:33;;;;;;;;;;;;;;;;;;5055634;28;19908;-48
2022/05/07 03:02:59;;;;;;;;;;;;;;;;;;5050174;28;19913;-54
2022/05/07 03:05:26;;;;;;;;;;;;;;;;;;5052389;28;19913;-49
2022/05/07 03:07:56;;;;;;;;;;;;;;;;;;5054449;28;19924;-45
2022/05/07 03:10:22;;;;;;;;;;;;;;;;;;5049088;28;19917;-44
2022/05/07 03:12:49;;;;;;;;;;;;;;;;;;5049916;28;19979;-44
2022/05/07 03:15:15;;;;;;;;;;;;;;;;;;5053653;28;19924;-44
2022/05/07 03:17:42;;;;;;;;;;;;;;;;;;5051174;28;20007;-54
2022/05/07 03:20:11;;;;;;;;;;;;;;;;;;5049938;28;20404;-48
2022/05/07 03:22:39;;;;;;;;;;;;;;;;;;5049479;28;20848;-45
2022/05/07 03:25:09;;;;;;;;;;;;;;;;;;5050565;28;19909;-53
2022/05/07 03:27:35;;;;;;;;;;;;;;;;;;5050145;28;19952;-50
2022/05/07 03:30:02;;;;;;;;;;;;;;;;;;5047868;28;19986;-51
2022/05/07 03:32:31;;;;;;;;;;;;;;;;;;5051267;28;19917;-53
2022/05/07 03:34:58;;;;;;;;;;;;;;;;;;5049678;28;19913;-44
2022/05/07 03:37:24;;;;;;;;;;;;;;;;;;5052440;28;19912;-48
2022/05/07 03:40:00;;;;;;;;;;;;;;;;;;5058722;28;20035;-52
2022/05/07 03:42:28;;;;;;;;;;;;;;;;;;5073469;28;19919;-59
2022/05/07 03:44:55;;;;;;;;;;;;;;;;;;5073522;28;19904;-61
2022/05/07 03:47:22;;;;;;;;;;;;;;;;;;5073046;28;19909;-60
2022/05/07 03:49:48;;;;;;;;;;;;;;;;;;5072922;28;19916;-48
2022/05/07 03:54:59;;;;;;;;;;;;;;;;;;5073367;28;20337;-57
2022/05/07 03:57:26;;;;;;;;;;;;;;;;;;5073437;28;19950;-52
2022/05/07 03:59:52;;;;;;;;;;;;;;;;;;5072711;28;19909;-60
2022/05/07 04:02:18;;;;;;;;;;;;;;;;;;5072944;28;19914;-60
2022/05/07 04:04:45;;;;;;;;;;;;;;;;;;5071812;28;19962;-57
2022/05/07 04:07:14;;;;;;;;;;;;;;;;;;4940549;28;3782516;-57
2022/05/07 04:09:40;;;;;;;;;;;;;;;;;;5073822;28;20014;-59
2022/05/07 04:12:07;;;;;;;;;;;;;;;;;;5073785;28;19944;-59
2022/05/07 04:14:33;;;;;;;;;;;;;;;;;;5073433;28;19909;-56
2022/05/07 04:17:00;;;;;;;;;;;;;;;;;;5073803;28;19912;-50
2022/05/07 04:19:26;;;;;;;;;;;;;;;;;;5059453;28;19920;-51
2022/05/07 04:21:53;;;;;;;;;;;;;;;;;;5051768;28;19915;-50
2022/05/07 04:24:19;;;;;;;;;;;;;;;;;;5051896;28;19915;-48
2022/05/07 04:26:46;;;;;;;;;;;;;;;;;;5053759;28;19909;-54
2022/05/07 04:29:16;;;;;;;;;;;;;;;;;;5052008;28;19999;-53
2022/05/07 04:31:44;;;;;;;;;;;;;;;;;;5049068;28;20289;-52
2022/05/07 04:34:10;;;;;;;;;;;;;;;;;;5051813;28;19987;-49
2022/05/07 04:36:37;;;;;;;;;;;;;;;;;;5050846;28;19920;-52
2022/05/07 04:39:03;;;;;;;;;;;;;;;;;;5051749;28;19909;-52
2022/05/07 04:41:30;;;;;;;;;;;;;;;;;;5048902;28;19975;-53
2022/05/07 04:43:56;;;;;;;;;;;;;;;;;;5051858;28;19963;-58
2022/05/07 04:46:22;;;;;;;;;;;;;;;;;;5050954;28;19913;-53
2022/05/07 04:48:49;;;;;;;;;;;;;;;;;;5051031;28;19966;-54
2022/05/07 04:51:15;;;;;;;;;;;;;;;;;;5048522;28;19971;-52
2022/05/07 04:53:42;;;;;;;;;;;;;;;;;;5051457;28;19916;-50
2022/05/07 04:56:08;;;;;;;;;;;;;;;;;;5055099;28;20431;-49
2022/05/07 04:58:35;;;;;;;;;;;;;;;;;;5046267;28;19913;-51
2022/05/07 05:01:01;;;;;;;;;;;;;;;;;;5049132;28;20305;-52
2022/05/07 05:03:28;;;;;;;;;;;;;;;;;;5052108;28;20008;-49
2022/05/07 05:05:54;;;;;;;;;;;;;;;;;;5051636;28;19912;-50
2022/05/07 05:08:21;;;;;;;;;;;;;;;;;;5056630;28;19916;-55
2022/05/07 05:10:51;;;;;;;;;;;;;;;;;;5072253;28;20267;-50
2022/05/07 05:13:17;;;;;;;;;;;;;;;;;;5072685;28;20279;-57
2022/05/07 05:15:43;;;;;;;;;;;;;;;;;;5072704;28;20339;-50
2022/05/07 05:18:13;;;;;;;;;;;;;;;;;;5069326;28;19915;-56
2022/05/07 05:20:40;;;;;;;;;;;;;;;;;;5049361;28;19996;-53
2022/05/07 05:23:09;;;;;;;;;;;;;;;;;;5050210;28;19908;-52
2022/05/07 05:25:35;;;;;;;;;;;;;;;;;;5049912;28;19920;-48
2022/05/07 05:28:02;;;;;;;;;;;;;;;;;;5048138;28;19925;-49
2022/05/07 05:30:28;;;;;;;;;;;;;;;;;;5049708;28;19913;-56
2022/05/07 05:32:55;;;;;;;;;;;;;;;;;;5050135;28;20066;-56
2022/05/07 05:35:22;;;;;;;;;;;;;;;;;;5051752;28;19920;-51
2022/05/07 05:37:51;;;;;;;;;;;;;;;;;;5052040;28;19909;-54
2022/05/07 05:40:17;;;;;;;;;;;;;;;;;;5063510;28;19916;-53
2022/05/07 05:42:44;;;;;;;;;;;;;;;;;;5072377;28;19909;-56
2022/05/07 05:45:11;;;;;;;;;;;;;;;;;;5072118;28;19919;-53
2022/05/07 05:47:37;;;;;;;;;;;;;;;;;;5072160;28;19912;-55
2022/05/07 05:50:04;;;;;;;;;;;;;;;;;;5072005;28;19908;-52
2022/05/07 05:52:31;;;;;;;;;;;;;;;;;;5072346;28;19957;-55
2022/05/07 05:54:57;;;;;;;;;;;;;;;;;;5072165;28;19948;-56
2022/05/07 05:57:24;;;;;;;;;;;;;;;;;;5071977;28;19923;-54
2022/05/07 05:59:50;;;;;;;;;;;;;;;;;;5071732;28;19913;-57
2022/05/07 06:02:18;;;;;;;;;;;;;;;;;;5055842;28;20287;-56
2022/05/07 06:04:44;;;;;;;;;;;;;;;;;;5031839;28;19916;-55
2022/05/07 06:07:11;;;;;;;;;;;;;;;;;;5030695;28;19931;-57
2022/05/07 06:09:37;;;;;;;;;;;;;;;;;;5030417;28;19913;-54
2022/05/07 06:12:04;;;;;;;;;;;;;;;;;;5030222;28;19936;-56
2022/05/07 06:14:30;;;;;;;;;;;;;;;;;;5031434;28;19917;-55
2022/05/07 06:16:57;;;;;;;;;;;;;;;;;;5031774;28;19909;-52
2022/05/07 06:19:28;;;;;;;;;;;;;;;;;;5031677;28;19972;-51
2022/05/07 06:21:54;;;;;;;;;;;;;;;;;;5031762;28;19915;-54
2022/05/07 06:29:50;;;;;;;;;;;;;;;;;;5072050;28;20378;-51
2022/05/07 06:32:18;;;;;;;;;;;;;;;;;;5072027;28;20415;-54
2022/05/07 06:34:44;;;;;;;;;;;;;;;;;;5072317;28;19912;-55
2022/05/07 06:37:11;;;;;;;;;;;;;;;;;;5072125;28;20359;-56
2022/05/07 06:39:38;;;;;;;;;;;;;;;;;;5072171;28;20332;-55
2022/05/07 06:42:04;;;;;;;;;;;;;;;;;;5071971;28;19916;-51
2022/05/07 06:44:30;;;;;;;;;;;;;;;;;;5071249;28;20008;-49
2022/05/07 06:46:57;;;;;;;;;;;;;;;;;;5071645;28;19909;-52
2022/05/07 06:49:24;;;;;;;;;;;;;;;;;;5071028;28;19945;-50
2022/05/07 06:51:51;;;;;;;;;;;;;;;;;;5070818;28;19915;-55
2022/05/07 06:54:17;;;;;;;;;;;;;;;;;;5068534;28;19920;-51
2022/05/07 06:56:44;;;;;;;;;;;;;;;;;;5052231;28;19924;-55
2022/05/07 06:59:10;;;;;;;;;;;;;;;;;;5053061;28;19909;-51
2022/05/07 07:01:37;;;;;;;;;;;;;;;;;;5055798;28;19913;-55
2022/05/07 07:04:04;;;;;;;;;;;;;;;;;;5050666;28;19949;-51
2022/05/07 07:06:30;;;;;;;;;;;;;;;;;;5053286;28;20402;-48
2022/05/07 07:08:56;;;;;;;;;;;;;;;;;;5053961;28;20268;-53
2022/05/07 07:11:24;;;;;;;;;;;;;;;;;;5052973;28;19909;-59
2022/05/07 07:13:51;;;;;;;;;;;;;;;;;;5052031;28;19917;-54
2022/05/07 07:16:18;;;;;;;;;;;;;;;;;;5052159;28;19926;-56
2022/05/07 07:18:47;;;;;;;;;;;;;;;;;;5049192;28;19931;-56
2022/05/07 07:21:14;;;;;;;;;;;;;;;;;;5052542;28;19912;-57
2022/05/07 07:23:40;;;;;;;;;;;;;;;;;;5051277;28;19913;-54
2022/05/07 07:26:07;;;;;;;;;;;;;;;;;;5051930;28;20344;-54
2022/05/07 07:28:33;;;;;;;;;;;;;;;;;;5048980;28;19909;-52
2022/05/07 07:31:00;;;;;;;;;;;;;;;;;;5050691;28;20008;-48
2022/05/07 07:33:47;;;;;;;;;;;;;;;;;;5052769;28;19916;-53
2022/05/07 07:36:13;;;;;;;;;;;;;;;;;;5049969;28;19940;-52
2022/05/07 07:38:39;;;;;;;;;;;;;;;;;;5048848;28;19981;-52
2022/05/07 07:41:06;;;;;;;;;;;;;;;;;;5052571;28;19921;-54
2022/05/07 07:43:32;;;;;;;;;;;;;;;;;;5051666;28;19921;-53
2022/05/07 07:48:53;;;;;;;;;;;;;;;;;;5047045;28;19919;-56
2022/05/07 07:51:20;;;;;;;;;;;;;;;;;;5051825;28;19978;-56
2022/05/07 07:53:55;;;;;;;;;;;;;;;;;;5051309;28;20398;-56
2022/05/07 07:56:21;;;;;;;;;;;;;;;;;;5051829;28;19979;-53
2022/05/07 07:58:51;;;;;;;;;;;;;;;;;;5049254;28;19913;-54
2022/05/07 08:01:17;;;;;;;;;;;;;;;;;;5051668;28;19917;-52
2022/05/07 08:03:47;;;;;;;;;;;;;;;;;;5051010;28;19916;-54
2022/05/07 08:06:13;;;;;;;;;;;;;;;;;;5051045;28;19971;-51
2022/05/07 08:14:09;;;;;;;;;;;;;;;;;;5051797;28;19912;-48
2022/05/07 08:16:35;;;;;;;;;;;;;;;;;;5050962;28;19924;-50
2022/05/07 08:19:03;;;;;;;;;;;;;;;;;;5048271;28;19908;-51
2022/05/07 08:21:29;;;;;;;;;;;;;;;;;;5051172;28;19908;-51
2022/05/07 08:23:56;;;;;;;;;;;;;;;;;;5051095;28;19963;-55
2022/05/07 08:26:22;;;;;;;;;;;;;;;;;;5050856;28;19916;-53
2022/05/07 08:28:51;;;;;;;;;;;;;;;;;;5048009;28;20271;-47
2022/05/07 08:31:18;;;;;;;;;;;;;;;;;;5051577;28;20012;-55
2022/05/07 08:33:44;;;;;;;;;;;;;;;;;;5051235;28;19992;-55
2022/05/07 08:36:11;;;;;;;;;;;;;;;;;;5050626;28;19928;-58
2022/05/07 08:38:37;;;;;;;;;;;;;;;;;;5049022;28;19912;-45
2022/05/07 08:41:04;;;;;;;;;;;;;;;;;;5050818;28;19909;-51
2022/05/07 08:43:30;;;;;;;;;;;;;;;;;;5051690;28;19921;-59
2022/05/07 08:45:57;;;;;;;;;;;;;;;;;;5053787;28;20283;-57
2022/05/07 08:48:23;;;;;;;;;;;;;;;;;;5054281;28;19917;-58
2022/05/07 08:50:50;;;;;;;;;;;;;;;;;;5060656;28;20006;-52
2022/05/07 08:53:16;;;;;;;;;;;;;;;;;;5073419;28;19915;-56
2022/05/07 08:55:43;;;;;;;;;;;;;;;;;;5072815;28;20014;-57
2022/05/07 08:58:10;;;;;;;;;;;;;;;;;;5073385;28;19930;-58
2022/05/07 09:00:38;;;;;;;;;;;;;;;;;;5073593;28;20299;-55
2022/05/07 09:03:05;;;;;;;;;;;;;;;;;;5052369;28;19913;-49
2022/05/07 09:05:31;;;;;;;;;;;;;;;;;;5044676;28;20042;-58
2022/05/07 09:07:58;;;;;;;;;;;;;;;;;;5050293;28;19949;-53
2022/05/07 09:10:26;;;;;;;;;;;;;;;;;;5050532;28;19909;-49
2022/05/07 09:12:52;;;;;;;;;;;;;;;;;;5048662;28;20332;-54
2022/05/07 09:15:19;;;;;;;;;;;;;;;;;;5044637;28;19969;-53
2022/05/07 09:17:46;;;;;;;;;;;;;;;;;;5048961;28;19916;-50
2022/05/07 09:20:12;;;;;;;;;;;;;;;;;;5051597;28;20011;-50
2022/05/07 09:22:39;;;;;;;;;;;;;;;;;;5047889;28;20382;-55
2022/05/07 09:25:05;;;;;;;;;;;;;;;;;;5046966;28;20393;-51
2022/05/07 09:27:32;;;;;;;;;;;;;;;;;;5047443;28;20017;-56
2022/05/07 09:29:58;;;;;;;;;;;;;;;;;;5048004;28;19913;-57
2022/05/07 09:32:27;;;;;;;;;;;;;;;;;;5050219;28;19916;-55
2022/05/07 09:37:38;;;;;;;;;;;;;;;;;;5049680;28;19975;-55
2022/05/07 09:40:04;;;;;;;;;;;;;;;;;;5050265;28;19913;-59
2022/05/07 09:42:31;;;;;;;;;;;;;;;;;;5049559;28;19913;-55
2022/05/07 09:44:57;;;;;;;;;;;;;;;;;;5047029;28;20672;-50
2022/05/07 09:47:24;;;;;;;;;;;;;;;;;;5049845;28;20341;-51
2022/05/07 09:52:35;;;;;;;;;;;;;;;;;;5048332;28;20346;-55
2022/05/07 09:57:46;;;;;;;;;;;;;;;;;;5049288;28;19916;-49
2022/05/07 10:00:14;;;;;;;;;;;;;;;;;;5049516;28;19909;-53
2022/05/07 10:02:40;;;;;;;;;;;;;;;;;;5049815;28;19926;-59
2022/05/07 10:05:07;;;;;;;;;;;;;;;;;;5047230;28;19913;-56
2022/05/07 10:07:33;;;;;;;;;;;;;;;;;;5049461;28;20311;-57
2022/05/07 10:10:02;;;;;;;;;;;;;;;;;;5049697;28;19952;-51
2022/05/07 10:12:28;;;;;;;;;;;;;;;;;;5050064;28;19908;-56
2022/05/07 10:14:55;;;;;;;;;;;;;;;;;;5046444;28;19927;-57
2022/05/07 10:17:21;;;;;;;;;;;;;;;;;;5048555;28;20355;-56
2022/05/07 10:19:50;;;;;;;;;;;;;;;;;;5049028;28;19909;-55
2022/05/07 10:22:17;;;;;;;;;;;;;;;;;;5049730;28;20279;-45
2022/05/07 10:24:43;;;;;;;;;;;;;;;;;;5046421;28;19916;-55
2022/05/07 10:27:10;;;;;;;;;;;;;;;;;;5047776;28;19909;-57
2022/05/07 10:29:36;;;;;;;;;;;;;;;;;;5049485;28;20549;-58
2022/05/07 10:32:03;;;;;;;;;;;;;;;;;;5049655;28;20236;-56
2022/05/07 10:34:29;;;;;;;;;;;;;;;;;;5049479;28;19909;-50
2022/05/07 10:36:56;;;;;;;;;;;;;;;;;;5052452;28;19956;-57
2022/05/07 10:39:22;;;;;;;;;;;;;;;;;;5053224;28;19909;-52
2022/05/07 10:41:48;;;;;;;;;;;;;;;;;;5052935;28;19913;-56
2022/05/07 10:44:15;;;;;;;;;;;;;;;;;;5052490;28;20056;-58
2022/05/07 10:46:44;;;;;;;;;;;;;;;;;;5055174;28;19913;-59
2022/05/07 10:49:11;;;;;;;;;;;;;;;;;;5054848;28;19920;-53
2022/05/07 10:51:37;;;;;;;;;;;;;;;;;;5055155;28;19986;-55
2022/05/07 10:54:04;;;;;;;;;;;;;;;;;;5055325;28;19909;-44
2022/05/07 10:56:30;;;;;;;;;;;;;;;;;;5055870;28;19921;-58
2022/05/07 10:59:00;;;;;;;;;;;;;;;;;;5056164;28;19909;-53
2022/05/07 11:01:26;;;;;;;;;;;;;;;;;;5056151;28;19916;-45
2022/05/07 11:03:53;;;;;;;;;;;;;;;;;;5052203;28;19970;-52
2022/05/07 11:06:19;;;;;;;;;;;;;;;;;;5049779;28;19924;-45
2022/05/07 11:08:46;;;;;;;;;;;;;;;;;;5053340;28;19944;-58
2022/05/07 11:11:14;;;;;;;;;;;;;;;;;;5053525;28;19908;-54
2022/05/07 11:13:41;;;;;;;;;;;;;;;;;;5055657;28;19913;-52
2022/05/07 11:16:08;;;;;;;;;;;;;;;;;;5055607;28;20007;-52
2022/05/07 11:18:34;;;;;;;;;;;;;;;;;;5055805;28;19917;-52
2022/05/07 11:21:01;;;;;;;;;;;;;;;;;;5055311;28;20003;-52
2022/05/07 11:23:28;;;;;;;;;;;;;;;;;;5072083;28;19967;-51
2022/05/07 11:25:54;;;;;;;;;;;;;;;;;;5074582;28;19915;-55
2022/05/07 11:28:21;;;;;;;;;;;;;;;;;;5074933;28;19920;-58
2022/05/07 11:30:47;;;;;;;;;;;;;;;;;;5073268;28;19916;-53
2022/05/07 11:33:13;;;;;;;;;;;;;;;;;;5074035;28;19909;-56
2022/05/07 11:35:40;;;;;;;;;;;;;;;;;;5073752;28;19928;-55
2022/05/07 11:38:06;;;;;;;;;;;;;;;;;;5074016;28;19915;-53
2022/05/07 11:40:33;;;;;;;;;;;;;;;;;;5073595;28;19909;-57
2022/05/07 11:45:44;;;;;;;;;;;;;;;;;;5074918;28;19916;-55
2022/05/07 11:48:15;;;;;;;;;;;;;;;;;;5075295;28;19912;-60
2022/05/07 11:50:41;;;;;;;;;;;;;;;;;;5075781;28;19912;-60
2022/05/07 11:53:07;;;;;;;;;;;;;;;;;;5075219;28;19931;-62
2022/05/07 11:55:34;;;;;;;;;;;;;;;;;;5075223;28;19920;-56
2022/05/07 11:58:01;;;;;;;;;;;;;;;;;;5074070;28;19909;-56
2022/05/07 12:00:27;;;;;;;;;;;;;;;;;;5075348;28;20402;-60
2022/05/07 12:02:54;;;;;;;;;;;;;;;;;;5075105;28;19949;-53
2022/05/07 12:05:24;;;;;;;;;;;;;;;;;;5075362;28;19915;-48
2022/05/07 12:07:51;;;;;;;;;;;;;;;;;;5073632;28;19928;-59
2022/05/07 12:10:18;;;;;;;;;;;;;;;;;;5074886;28;19915;-59
2022/05/07 12:12:45;;;;;;;;;;;;;;;;;;5075276;28;19908;-59
2022/05/07 12:15:12;;;;;;;;;;;;;;;;;;5074966;28;19975;-56
2022/05/07 12:17:54;;;;;;;;;;;;;;;;;;5074324;28;19961;-52
2022/05/07 12:20:21;;;;;;;;;;;;;;;;;;5074669;28;19962;-51
2022/05/07 12:31:02;;;;;;;;;;;;;;;;;;5074353;28;19915;-44
2022/05/07 12:33:29;;;;;;;;;;;;;;;;;;5073829;28;19916;-42
2022/05/07 12:35:55;;;;;;;;;;;;;;;;;;5074027;28;19931;-50
2022/05/07 12:38:22;;;;;;;;;;;;;;;;;;5073933;28;19915;-46
2022/05/07 12:40:48;;;;;;;;;;;;;;;;;;5074156;28;19909;-48
2022/05/07 12:43:15;;;;;;;;;;;;;;;;;;5073806;28;19909;-46
2022/05/07 12:45:42;;;;;;;;;;;;;;;;;;5073578;28;19967;-47
2022/05/07 12:48:09;;;;;;;;;;;;;;;;;;5074089;28;20287;-54
2022/05/07 12:50:35;;;;;;;;;;;;;;;;;;5074139;28;19915;-51
2022/05/07 12:53:01;;;;;;;;;;;;;;;;;;5073628;28;19919;-53
2022/05/07 12:55:28;;;;;;;;;;;;;;;;;;5073257;28;19970;-52
2022/05/07 12:57:54;;;;;;;;;;;;;;;;;;5072718;28;19915;-53
2022/05/07 13:00:21;;;;;;;;;;;;;;;;;;5073770;28;19965;-51
2022/05/07 13:02:52;;;;;;;;;;;;;;;;;;5073515;28;19915;-45
2022/05/07 13:05:21;;;;;;;;;;;;;;;;;;5073681;28;19962;-54
2022/05/07 13:07:48;;;;;;;;;;;;;;;;;;5071757;28;19952;-54
2022/05/07 13:10:14;;;;;;;;;;;;;;;;;;5072223;28;19919;-58
2022/05/07 13:12:41;;;;;;;;;;;;;;;;;;5073331;28;19919;-55
2022/05/07 13:15:07;;;;;;;;;;;;;;;;;;5072988;28;19913;-52
2022/05/07 13:17:34;;;;;;;;;;;;;;;;;;5072972;28;19940;-56
2022/05/07 13:20:00;;;;;;;;;;;;;;;;;;5073134;28;20345;-50
2022/05/07 13:22:27;;;;;;;;;;;;;;;;;;5073326;28;19916;-58
2022/05/07 13:24:54;;;;;;;;;;;;;;;;;;5073059;28;19962;-58
2022/05/07 13:27:20;;;;;;;;;;;;;;;;;;5073318;28;19945;-60
2022/05/07 13:29:47;;;;;;;;;;;;;;;;;;5072979;28;19915;-52
2022/05/07 13:32:13;;;;;;;;;;;;;;;;;;5072499;28;19916;-54
2022/05/07 13:34:40;;;;;;;;;;;;;;;;;;5073103;28;19915;-58
2022/05/07 13:37:06;;;;;;;;;;;;;;;;;;5073299;28;19973;-57
2022/05/07 13:39:33;;;;;;;;;;;;;;;;;;5073184;28;19915;-53
2022/05/07 13:42:02;;;;;;;;;;;;;;;;;;5072984;28;19916;-54
2022/05/07 13:44:29;;;;;;;;;;;;;;;;;;5073111;28;19909;-58
2022/05/07 13:46:55;;;;;;;;;;;;;;;;;;5072876;28;19916;-58
2022/05/07 13:49:22;;;;;;;;;;;;;;;;;;5073109;28;19909;-58
2022/05/07 13:51:48;;;;;;;;;;;;;;;;;;5072527;28;19919;-56
2022/05/07 13:54:20;;;;;;;;;;;;;;;;;;5072891;28;19908;-59
2022/05/07 13:56:46;;;;;;;;;;;;;;;;;;5073014;28;19917;-55
2022/05/07 13:59:13;;;;;;;;;;;;;;;;;;5072730;28;19909;-54
2022/05/07 14:01:39;;;;;;;;;;;;;;;;;;5072810;28;20305;-57
2022/05/07 14:04:06;;;;;;;;;;;;;;;;;;5072835;28;19909;-50
2022/05/07 14:06:33;;;;;;;;;;;;;;;;;;5072525;28;20279;-57
2022/05/07 14:08:59;;;;;;;;;;;;;;;;;;5075302;28;19916;-55
2022/05/07 14:11:25;;;;;;;;;;;;;;;;;;5076921;28;19999;-55
2022/05/07 14:13:52;;;;;;;;;;;;;;;;;;5073055;28;19920;-56
2022/05/07 14:16:18;;;;;;;;;;;;;;;;;;5076446;28;19916;-48
2022/05/07 14:18:45;;;;;;;;;;;;;;;;;;5075125;28;19908;-59
2022/05/07 14:21:12;;;;;;;;;;;;;;;;;;5076373;28;19919;-57
2022/05/07 14:23:38;;;;;;;;;;;;;;;;;;5076046;28;20425;-53
2022/05/07 14:26:05;;;;;;;;;;;;;;;;;;5076380;28;20235;-57
2022/05/07 14:28:31;;;;;;;;;;;;;;;;;;5076602;28;19966;-52
2022/05/07 14:30:58;;;;;;;;;;;;;;;;;;5076383;28;19947;-58
2022/05/07 14:33:24;;;;;;;;;;;;;;;;;;5075091;28;19912;-53
2022/05/07 14:35:52;;;;;;;;;;;;;;;;;;5076422;28;19924;-57
2022/05/07 14:38:19;;;;;;;;;;;;;;;;;;5075084;28;19912;-56
2022/05/07 14:40:45;;;;;;;;;;;;;;;;;;5076391;28;19909;-52
2022/05/07 14:43:12;;;;;;;;;;;;;;;;;;5076033;28;19965;-54
2022/05/07 14:45:38;;;;;;;;;;;;;;;;;;5075969;28;19908;-57
2022/05/07 14:48:05;;;;;;;;;;;;;;;;;;5075847;28;20411;-56
2022/05/07 14:50:31;;;;;;;;;;;;;;;;;;5075536;28;19995;-47
2022/05/07 14:52:58;;;;;;;;;;;;;;;;;;5076001;28;20004;-50
2022/05/07 14:55:24;;;;;;;;;;;;;;;;;;5075887;28;19924;-57
2022/05/07 14:57:51;;;;;;;;;;;;;;;;;;5075651;28;19916;-57
2022/05/07 15:00:17;;;;;;;;;;;;;;;;;;5075800;28;19944;-58
2022/05/07 15:02:48;;;;;;;;;;;;;;;;;;5075673;28;19909;-57
2022/05/07 15:05:15;;;;;;;;;;;;;;;;;;5075647;28;19963;-60
2022/05/07 15:07:41;;;;;;;;;;;;;;;;;;5075608;28;19938;-59
2022/05/07 15:12:52;;;;;;;;;;;;;;;;;;5075597;28;19951;-57
2022/05/07 15:15:19;;;;;;;;;;;;;;;;;;5075674;28;19912;-56
2022/05/07 15:17:45;;;;;;;;;;;;;;;;;;5075325;28;19912;-56
2022/05/07 15:20:15;;;;;;;;;;;;;;;;;;5075573;28;20354;-51
2022/05/07 15:22:41;;;;;;;;;;;;;;;;;;5075716;28;19912;-59
2022/05/07 15:25:09;;;;;;;;;;;;;;;;;;5075706;28;19908;-48
2022/05/07 15:27:35;;;;;;;;;;;;;;;;;;5075738;28;20332;-59
2022/05/07 15:30:01;;;;;;;;;;;;;;;;;;5075558;28;20315;-51
2022/05/07 15:37:57;;;;;;;;;;;;;;;;;;5075170;28;19911;-49
2022/05/07 15:40:27;;;;;;;;;;;;;;;;;;5075545;28;19908;-49
2022/05/07 15:42:54;;;;;;;;;;;;;;;;;;5072228;28;19915;-56
2022/05/07 15:45:23;;;;;;;;;;;;;;;;;;5055419;28;19931;-52
2022/05/07 15:47:49;;;;;;;;;;;;;;;;;;5054724;28;20002;-53
2022/05/07 15:50:17;;;;;;;;;;;;;;;;;;5054970;28;19909;-58
2022/05/07 15:52:43;;;;;;;;;;;;;;;;;;5055047;28;19909;-55
2022/05/07 15:55:10;;;;;;;;;;;;;;;;;;5055152;28;19913;-53
2022/05/07 15:57:37;;;;;;;;;;;;;;;;;;5054994;28;19916;-49
2022/05/07 16:00:03;;;;;;;;;;;;;;;;;;5054881;28;19916;-51
2022/05/07 16:02:31;;;;;;;;;;;;;;;;;;5054692;28;19915;-52
2022/05/07 16:04:57;;;;;;;;;;;;;;;;;;5054504;28;19917;-49
2022/05/07 16:07:23;;;;;;;;;;;;;;;;;;5054831;28;20298;-52
2022/05/07 16:09:50;;;;;;;;;;;;;;;;;;5053366;28;19970;-48
2022/05/07 16:12:16;;;;;;;;;;;;;;;;;;5054907;28;19916;-53
2022/05/07 16:14:44;;;;;;;;;;;;;;;;;;5054774;28;19959;-54
2022/05/07 16:17:10;;;;;;;;;;;;;;;;;;5053126;28;19913;-54
2022/05/07 16:19:39;;;;;;;;;;;;;;;;;;5054137;28;19917;-56
2022/05/07 16:22:06;;;;;;;;;;;;;;;;;;5054550;28;19960;-54
2022/05/07 16:27:17;;;;;;;;;;;;;;;;;;5064483;28;20054;-57
2022/05/07 16:29:43;;;;;;;;;;;;;;;;;;5054058;28;19915;-48
2022/05/07 16:32:12;;;;;;;;;;;;;;;;;;5073339;28;19932;-55
2022/05/07 16:34:39;;;;;;;;;;;;;;;;;;5074274;28;19916;-57
2022/05/07 16:37:05;;;;;;;;;;;;;;;;;;5073681;28;20359;-57
2022/05/07 16:39:33;;;;;;;;;;;;;;;;;;5074269;28;19909;-47
2022/05/07 16:41:59;;;;;;;;;;;;;;;;;;5073935;28;19909;-49
2022/05/07 16:44:26;;;;;;;;;;;;;;;;;;5074165;28;19908;-45
2022/05/07 16:46:52;;;;;;;;;;;;;;;;;;5074110;28;19908;-47
2022/05/07 16:49:19;;;;;;;;;;;;;;;;;;5073606;28;19962;-44
2022/05/07 16:51:45;;;;;;;;;;;;;;;;;;5073604;28;19952;-43
2022/05/07 16:54:12;;;;;;;;;;;;;;;;;;5073587;28;19909;-55
2022/05/07 16:56:38;;;;;;;;;;;;;;;;;;5074027;28;19939;-49
2022/05/07 16:59:07;;;;;;;;;;;;;;;;;;5073750;28;19915;-57
2022/05/07 17:01:34;;;;;;;;;;;;;;;;;;5073646;28;20220;-57
2022/05/07 17:04:00;;;;;;;;;;;;;;;;;;5073480;28;19909;-56
2022/05/07 17:06:30;;;;;;;;;;;;;;;;;;5058650;28;19928;-56
2022/05/07 17:08:56;;;;;;;;;;;;;;;;;;5053950;28;19927;-57
2022/05/07 17:11:23;;;;;;;;;;;;;;;;;;5062606;28;19908;-52
2022/05/07 17:13:49;;;;;;;;;;;;;;;;;;5073607;28;19908;-54
2022/05/07 17:16:16;;;;;;;;;;;;;;;;;;5073166;28;19917;-48
2022/05/07 17:18:42;;;;;;;;;;;;;;;;;;5073508;28;19915;-42
2022/05/07 17:21:09;;;;;;;;;;;;;;;;;;5073657;28;19908;-43
2022/05/07 17:23:35;;;;;;;;;;;;;;;;;;5073323;28;19995;-47
2022/05/07 17:26:02;;;;;;;;;;;;;;;;;;5073784;28;19992;-53
2022/05/07 17:28:29;;;;;;;;;;;;;;;;;;5073269;28;19994;-45
2022/05/07 17:30:58;;;;;;;;;;;;;;;;;;5072771;28;19908;-52
2022/05/07 17:33:25;;;;;;;;;;;;;;;;;;5073170;28;20329;-51
2022/05/07 17:35:51;;;;;;;;;;;;;;;;;;5072644;28;19927;-50
2022/05/07 17:38:18;;;;;;;;;;;;;;;;;;5073044;28;19962;-55